Terminal Aerodrome Forecast
Issued by NWS Wichita, KS

Home | Current Version | Previous Version | Text Only | Print | Product List | Glossary Off
Versions: 1 2 3 4 5 6 7 8 9 10 11 12 13 14 15 16 17 18 19 20 21 22 23 24 25

784
FTUS43 KICT 231550 AAD
TAFICT
TAF AMD
KICT 231550Z 2316/2412 17016G25KT P6SM VCTS OVC035CB
      TEMPO 2316/2318 VRB17G28KT 2SM TSRA BR BKN025CB
     FM231800 17016G23KT P6SM SCT025 BKN035
     FM232300 17016G25KT P6SM BKN025=

USA.gov is the U.S. government's official web portal to all federal, state and local government web resources and services.